createdAt,value
2022-11-16T00:02:13.372Z,98647.41
2022-11-16T00:04:41.423Z,98643.50
2022-11-16T00:07:09.039Z,98641.69
2022-11-16T00:09:36.209Z,98644.63
2022-11-16T00:12:06.256Z,98630.81
2022-11-16T00:14:35.474Z,98633.62
2022-11-16T00:17:03.462Z,98636.28
2022-11-16T00:19:31.263Z,98620.66
2022-11-16T00:21:58.791Z,98621.66
2022-11-16T00:24:25.858Z,98620.41
2022-11-16T00:26:55.444Z,98616.50
2022-11-16T00:29:25.267Z,98611.22
2022-11-16T00:31:53.802Z,98613.53
2022-11-16T00:34:22.495Z,98612.00
2022-11-16T00:36:49.732Z,98617.56
2022-11-16T00:39:18.624Z,98615.84
2022-11-16T00:41:46.356Z,98612.47
2022-11-16T00:44:13.605Z,98606.69
2022-11-16T00:46:41.339Z,98612.53
2022-11-16T00:49:09.724Z,98603.88
2022-11-16T00:51:37.589Z,98598.22
2022-11-16T00:54:06.822Z,98598.91
2022-11-16T00:56:35.166Z,98590.06
2022-11-16T00:59:02.265Z,98584.97
2022-11-16T01:01:29.928Z,98580.06
2022-11-16T01:03:57.068Z,98578.56
2022-11-16T01:06:24.507Z,98572.44
2022-11-16T01:08:53.116Z,98574.63
2022-11-16T01:11:41.370Z,98575.66
2022-11-16T01:14:09.450Z,98574.66
2022-11-16T01:16:36.678Z,98567.37
2022-11-16T01:19:04.696Z,98570.41
2022-11-16T01:21:33.290Z,98560.50
2022-11-16T01:24:00.550Z,98550.31
2022-11-16T01:26:27.867Z,98548.03
2022-11-16T01:28:55.284Z,98547.44
2022-11-16T01:31:23.072Z,98539.31
2022-11-16T01:33:51.307Z,98539.47
2022-11-16T01:36:19.262Z,98532.53
2022-11-16T01:38:47.140Z,98534.31
2022-11-16T01:41:17.132Z,98527.09
2022-11-16T01:44:01.328Z,98529.72
2022-11-16T01:46:30.219Z,98523.78
2022-11-16T01:49:08.043Z,98517.66
2022-11-16T01:51:38.015Z,98517.16
2022-11-16T01:54:09.891Z,98514.81
2022-11-16T01:56:38.937Z,98507.00
2022-11-16T01:59:07.659Z,98514.31
2022-11-16T02:01:34.747Z,98501.00
2022-11-16T02:04:02.246Z,98510.84
2022-11-16T02:06:44.156Z,98502.06
2022-11-16T02:09:57.155Z,98496.75
2022-11-16T02:12:46.904Z,98495.81
2022-11-16T02:15:17.760Z,98492.66
2022-11-16T02:17:48.829Z,98486.97
2022-11-16T02:20:26.694Z,98493.44
2022-11-16T02:23:11.501Z,98493.09
2022-11-16T02:25:50.886Z,98489.53
2022-11-16T02:28:26.059Z,98480.62
2022-11-16T02:30:56.615Z,98478.19
2022-11-16T02:33:30.575Z,98473.94
2022-11-16T02:36:02.253Z,98463.75
2022-11-16T02:38:38.146Z,98463.16
2022-11-16T02:41:26.473Z,98461.47
2022-11-16T02:44:03.032Z,98458.16
2022-11-16T02:46:36.726Z,98461.63
2022-11-16T02:49:08.056Z,98461.78
2022-11-16T02:51:37.651Z,98459.44
2022-11-16T02:54:08.614Z,98458.06
2022-11-16T02:57:17.792Z,98447.00
2022-11-16T02:59:50.528Z,98447.75
2022-11-16T03:03:09.656Z,98450.94
2022-11-16T03:06:02.153Z,98443.59
2022-11-16T03:08:34.768Z,98439.25
2022-11-16T03:11:25.394Z,98446.78
2022-11-16T03:13:57.838Z,98442.38
2022-11-16T03:16:27.414Z,98438.91
2022-11-16T03:18:58.944Z,98434.38
2022-11-16T03:21:34.890Z,98433.16
2022-11-16T03:24:05.339Z,98428.63
2022-11-16T03:26:42.804Z,98419.91
2022-11-16T03:29:32.489Z,98418.56
2022-11-16T03:32:11.001Z,98420.09
2022-11-16T03:34:42.924Z,98418.41
2022-11-16T03:37:11.595Z,98408.84
2022-11-16T03:39:39.865Z,98403.00
2022-11-16T03:42:14.117Z,98405.56
2022-11-16T03:44:44.902Z,98404.41
2022-11-16T03:47:13.278Z,98405.50
2022-11-16T03:49:45.439Z,98398.91
2022-11-16T03:52:17.885Z,98402.88
2022-11-16T03:54:45.314Z,98391.88
2022-11-16T03:57:15.681Z,98391.38
2022-11-16T03:59:45.237Z,98394.44
2022-11-16T04:02:12.924Z,98389.38
2022-11-16T04:04:59.294Z,98386.75
2022-11-16T04:07:45.223Z,98381.56
2022-11-16T04:10:32.700Z,98373.84
2022-11-16T04:13:19.490Z,98372.78
2022-11-16T04:16:05.739Z,98378.97
2022-11-16T04:18:51.406Z,98371.25
2022-11-16T04:21:50.909Z,98375.50
2022-11-16T04:24:25.847Z,98362.53
2022-11-16T04:27:13.391Z,98365.00
2022-11-16T04:29:41.900Z,98363.28
2022-11-16T04:32:29.144Z,98362.06
2022-11-16T04:35:16.699Z,98362.19
2022-11-16T04:37:52.561Z,98362.06
2022-11-16T04:40:23.360Z,98352.09
2022-11-16T04:42:59.200Z,98345.44
2022-11-16T04:45:46.546Z,98351.62
2022-11-16T04:48:18.108Z,98347.59
2022-11-16T04:50:46.963Z,98348.44
2022-11-16T04:53:14.925Z,98348.94
2022-11-16T04:55:42.798Z,98342.44
2022-11-16T04:58:09.912Z,98339.13
2022-11-16T05:00:38.286Z,98346.19
2022-11-16T05:03:06.157Z,98338.78
2022-11-16T05:05:33.882Z,98339.06
2022-11-16T05:08:01.233Z,98334.19
2022-11-16T05:10:28.666Z,98333.81
2022-11-16T05:12:57.278Z,98337.94
2022-11-16T05:15:25.132Z,98336.44
2022-11-16T05:17:56.952Z,98340.94
2022-11-16T05:20:44.850Z,98339.25
2022-11-16T05:23:34.151Z,98339.25
2022-11-16T05:26:04.067Z,98329.50
2022-11-16T05:28:31.676Z,98325.09
2022-11-16T05:31:00.392Z,98326.69
2022-11-16T05:33:33.858Z,98321.16
2022-11-16T05:36:05.877Z,98316.84
2022-11-16T05:38:36.102Z,98317.69
2022-11-16T05:41:07.889Z,98312.59
2022-11-16T05:43:38.223Z,98310.63
2022-11-16T05:46:10.787Z,98310.53
2022-11-16T05:48:39.587Z,98301.63
2022-11-16T05:51:07.426Z,98301.91
2022-11-16T05:53:35.990Z,98300.78
2022-11-16T05:56:05.592Z,98298.16
2022-11-16T05:58:35.828Z,98298.53
2022-11-16T06:01:07.624Z,98293.25
2022-11-16T06:03:38.892Z,98299.28
2022-11-16T06:06:07.708Z,98294.69
2022-11-16T06:08:37.387Z,98298.81
2022-11-16T06:11:13.021Z,98297.59
2022-11-16T06:13:44.988Z,98298.16
2022-11-16T06:16:13.403Z,98298.75
2022-11-16T06:18:43.159Z,98302.09
2022-11-16T06:21:18.002Z,98295.16
2022-11-16T06:23:46.329Z,98305.19
2022-11-16T06:26:22.991Z,98302.75
2022-11-16T06:28:58.922Z,98295.88
2022-11-16T06:31:28.881Z,98292.13
2022-11-16T06:33:59.570Z,98283.97
2022-11-16T06:36:36.226Z,98285.13
2022-11-16T06:39:04.638Z,98284.28
2022-11-16T06:41:41.097Z,98283.91
2022-11-16T06:44:10.004Z,98283.44
2022-11-16T06:46:38.876Z,98285.41
2022-11-16T06:49:09.489Z,98272.63
2022-11-16T06:51:44.327Z,98265.13
2022-11-16T06:54:13.262Z,98269.34
2022-11-16T06:56:44.108Z,98277.31
2022-11-16T06:59:15.069Z,98273.09
2022-11-16T07:01:44.522Z,98270.81
2022-11-16T07:04:15.001Z,98268.38
2022-11-16T07:06:45.668Z,98266.44
2022-11-16T07:09:17.112Z,98261.38
2022-11-16T07:11:46.083Z,98257.31
2022-11-16T07:14:18.557Z,98259.38
2022-11-16T07:16:47.610Z,98256.47
2022-11-16T07:19:15.967Z,98253.75
2022-11-16T07:21:43.708Z,98250.66
2022-11-16T07:24:13.641Z,98254.31
2022-11-16T07:26:46.162Z,98253.94
2022-11-16T07:29:15.911Z,98250.09
2022-11-16T07:31:44.444Z,98244.00
2022-11-16T07:34:17.991Z,98239.72
2022-11-16T07:36:49.408Z,98240.75
2022-11-16T07:39:18.043Z,98242.94
2022-11-16T07:41:47.818Z,98240.13
2022-11-16T07:44:15.328Z,98238.69
2022-11-16T07:46:47.538Z,98232.56
2022-11-16T07:49:18.510Z,98246.47
2022-11-16T07:51:47.593Z,98232.28
2022-11-16T07:54:16.893Z,98230.75
2022-11-16T07:56:45.176Z,98228.03
2022-11-16T07:59:12.258Z,98229.09
2022-11-16T08:01:40.893Z,98226.28
2022-11-16T08:04:11.543Z,98234.09
2022-11-16T08:06:42.377Z,98218.37
2022-11-16T08:09:10.754Z,98222.63
2022-11-16T08:11:38.146Z,98224.91
2022-11-16T08:14:05.644Z,98227.94
2022-11-16T08:16:33.506Z,98224.84
2022-11-16T08:19:03.535Z,98231.41
2022-11-16T08:21:31.293Z,98229.53
2022-11-16T08:23:59.068Z,98224.28
2022-11-16T08:26:27.795Z,98233.53
2022-11-16T08:28:57.233Z,98224.16
2022-11-16T08:31:28.135Z,98221.91
2022-11-16T08:33:59.381Z,98224.34
2022-11-16T08:36:26.929Z,98216.41
2022-11-16T08:38:55.029Z,98216.41
2022-11-16T08:41:22.862Z,98213.47
2022-11-16T08:43:51.947Z,98218.25
2022-11-16T08:46:22.042Z,98222.00
2022-11-16T08:48:57.443Z,98214.72
2022-11-16T08:51:26.302Z,98211.56
2022-11-16T08:53:58.095Z,98210.50
2022-11-16T08:56:29.323Z,98212.72
2022-11-16T08:58:59.417Z,98213.38
2022-11-16T09:01:33.105Z,98205.69
2022-11-16T09:04:00.663Z,98206.72
2022-11-16T09:06:30.308Z,98201.66
2022-11-16T09:08:59.513Z,98203.13
2022-11-16T09:11:27.776Z,98195.63
2022-11-16T09:13:56.677Z,98197.34
2022-11-16T09:16:24.165Z,98191.03
2022-11-16T09:18:52.475Z,98185.09
2022-11-16T09:21:21.515Z,98181.06
2022-11-16T09:23:49.473Z,98190.16
2022-11-16T09:26:20.841Z,98182.06
2022-11-16T09:28:53.456Z,98179.63
2022-11-16T09:31:23.609Z,98191.03
2022-11-16T09:33:52.521Z,98186.09
2022-11-16T09:36:21.571Z,98191.56
2022-11-16T09:41:52.078Z,98181.84
2022-11-16T09:44:32.467Z,98181.47
2022-11-16T09:47:01.174Z,98177.78
2022-11-16T09:49:39.528Z,98165.69
2022-11-16T09:52:15.299Z,98164.66
2022-11-16T09:54:45.308Z,98153.56
2022-11-16T09:57:23.500Z,98156.75
2022-11-16T09:59:56.873Z,98148.31
2022-11-16T10:02:40.707Z,98152.53
2022-11-16T10:05:32.415Z,98152.34
2022-11-16T10:08:10.832Z,98149.06
2022-11-16T10:10:50.545Z,98152.34
2022-11-16T10:13:17.602Z,98140.41
2022-11-16T10:16:06.133Z,98137.69
2022-11-16T10:18:39.256Z,98137.34
2022-11-16T10:21:27.145Z,98135.34
2022-11-16T10:24:16.690Z,98130.06
2022-11-16T10:27:08.364Z,98124.38
2022-11-16T10:29:45.267Z,98122.38
2022-11-16T10:32:25.973Z,98119.53
2022-11-16T10:35:00.101Z,98112.19
2022-11-16T10:37:38.099Z,98107.97
2022-11-16T10:40:26.436Z,98103.66
2022-11-16T10:43:15.406Z,98091.72
2022-11-16T10:45:48.841Z,98088.69
2022-11-16T10:48:41.183Z,98083.94
2022-11-16T10:51:11.453Z,98086.88
2022-11-16T10:53:43.810Z,98084.88
2022-11-16T10:56:12.001Z,98078.16
2022-11-16T10:58:53.367Z,98075.09
2022-11-16T11:01:49.914Z,98067.50
2022-11-16T11:04:19.328Z,98066.78
2022-11-16T11:06:49.120Z,98070.75
2022-11-16T11:09:37.815Z,98066.03
2022-11-16T11:12:41.232Z,98075.50
2022-11-16T11:15:11.161Z,98073.28
2022-11-16T11:17:41.834Z,98066.34
2022-11-16T11:20:21.366Z,98066.44
2022-11-16T11:22:55.795Z,98060.00
2022-11-16T11:25:28.706Z,98055.38
2022-11-16T11:28:14.422Z,98050.66
2022-11-16T11:30:42.523Z,98037.06
2022-11-16T11:33:12.875Z,98033.69
2022-11-16T11:35:40.159Z,98036.94
2022-11-16T11:38:15.215Z,98040.03
2022-11-16T11:40:57.763Z,98030.62
2022-11-16T11:43:28.615Z,98027.91
2022-11-16T11:46:23.677Z,98030.88
2022-11-16T11:49:03.781Z,98028.75
2022-11-16T11:51:41.626Z,98028.31
2022-11-16T11:54:20.566Z,98030.12
2022-11-16T11:56:51.281Z,98023.25
2022-11-16T11:59:22.693Z,98021.59
2022-11-16T12:02:09.461Z,98021.69
2022-11-16T12:04:57.018Z,98020.09
2022-11-16T12:07:36.518Z,98015.44
2022-11-16T12:10:43.902Z,98016.63
2022-11-16T12:13:51.069Z,98013.34
2022-11-16T12:16:29.463Z,98009.34
2022-11-16T12:19:00.969Z,98011.34
2022-11-16T12:22:01.074Z,98012.72
2022-11-16T12:25:18.863Z,98014.63
2022-11-16T12:28:04.032Z,98006.09
2022-11-16T12:30:37.363Z,98000.94
2022-11-16T12:33:32.141Z,98005.66
2022-11-16T12:36:26.275Z,97993.97
2022-11-16T12:39:40.987Z,97994.06
2022-11-16T12:42:20.093Z,97997.31
2022-11-16T12:45:30.570Z,97990.78
2022-11-16T12:48:24.860Z,97995.75
2022-11-16T12:51:08.996Z,97989.84
2022-11-16T12:53:49.486Z,97984.03
2022-11-16T12:56:29.674Z,97984.72
2022-11-16T12:59:24.755Z,97984.41
2022-11-16T13:02:01.988Z,97983.97
2022-11-16T13:04:53.702Z,97991.88
2022-11-16T13:07:49.074Z,97995.06
2022-11-16T13:10:42.886Z,97991.78
2022-11-16T13:13:41.159Z,97990.72
2022-11-16T13:16:10.967Z,97987.88
2022-11-16T13:18:51.975Z,97991.59
2022-11-16T13:21:50.707Z,97987.25
2022-11-16T13:24:31.813Z,97981.56
2022-11-16T13:27:36.271Z,97985.78
2022-11-16T13:30:07.198Z,97980.31
2022-11-16T13:32:37.511Z,97976.00
2022-11-16T13:35:14.808Z,97979.47
2022-11-16T13:37:48.972Z,97985.25
2022-11-16T13:40:33.556Z,97985.03
2022-11-16T13:43:10.171Z,97978.28
2022-11-16T13:45:54.092Z,97977.88
2022-11-16T13:48:38.643Z,97983.69
2022-11-16T13:51:08.091Z,97981.47
2022-11-16T13:54:43.475Z,97970.19
2022-11-16T13:56:50.962Z,97976.09
2022-11-16T13:59:25.326Z,97971.03
2022-11-16T14:01:59.899Z,97971.22
2022-11-16T14:04:58.048Z,97973.37
2022-11-16T14:07:33.597Z,97969.31
2022-11-16T14:10:04.708Z,97960.28
2022-11-16T14:12:37.804Z,97955.16
2022-11-16T14:15:21.967Z,97966.31
2022-11-16T14:17:58.009Z,97967.13
2022-11-16T14:20:38.224Z,97958.37
2022-11-16T14:23:35.731Z,97960.06
2022-11-16T14:26:20.541Z,97964.06
2022-11-16T14:29:25.480Z,97968.06
2022-11-16T14:31:59.127Z,97960.81
2022-11-16T14:34:50.467Z,97953.13
2022-11-16T14:37:30.407Z,97960.06
2022-11-16T14:40:20.014Z,97945.75
2022-11-16T14:45:49.193Z,97943.97
2022-11-16T14:48:20.496Z,97945.22
2022-11-16T14:51:10.319Z,97942.16
2022-11-16T14:53:41.436Z,97936.41
2022-11-16T14:56:15.111Z,97932.25
2022-11-16T14:58:52.949Z,97931.66
2022-11-16T15:01:24.739Z,97932.59
2022-11-16T15:03:58.885Z,97931.03
2022-11-16T15:06:26.874Z,97927.44
2022-11-16T15:08:59.396Z,97926.69
2022-11-16T15:11:49.974Z,97925.97
2022-11-16T15:14:20.731Z,97929.97
2022-11-16T15:16:52.626Z,97920.50
2022-11-16T15:19:20.736Z,97919.31
2022-11-16T15:21:58.979Z,97916.19
2022-11-16T15:24:32.635Z,97913.56
2022-11-16T15:27:14.071Z,97914.59
2022-11-16T15:29:47.325Z,97917.12
2022-11-16T15:32:17.043Z,97915.00
2022-11-16T15:34:53.778Z,97918.81
2022-11-16T15:37:30.853Z,97913.97
2022-11-16T15:40:02.339Z,97911.56
2022-11-16T15:42:29.875Z,97911.00
2022-11-16T15:45:01.912Z,97916.69
2022-11-16T15:47:30.312Z,97914.59
2022-11-16T15:49:58.442Z,97912.72
2022-11-16T15:52:45.787Z,97914.19
2022-11-16T15:55:40.009Z,97920.69
2022-11-16T15:58:28.623Z,97916.28
2022-11-16T16:00:56.416Z,97913.75
2022-11-16T16:03:31.602Z,97912.59
2022-11-16T16:05:58.816Z,97910.81
2022-11-16T16:08:38.557Z,97907.22
2022-11-16T16:11:20.346Z,97913.22
2022-11-16T16:14:01.007Z,97913.13
2022-11-16T16:16:28.201Z,97912.19
2022-11-16T16:19:06.724Z,97911.63
2022-11-16T16:21:43.016Z,97908.50
2022-11-16T16:24:31.971Z,97912.72
2022-11-16T16:26:59.171Z,97912.28
2022-11-16T16:29:30.255Z,97908.81
2022-11-16T16:31:57.449Z,97914.19
2022-11-16T16:34:24.685Z,97915.66
2022-11-16T16:36:52.135Z,97909.66
2022-11-16T16:39:20.775Z,97911.22
2022-11-16T16:41:48.038Z,97913.44
2022-11-16T16:44:15.793Z,97915.00
2022-11-16T16:46:44.669Z,97904.19
2022-11-16T16:49:11.769Z,97905.03
2022-11-16T16:51:41.603Z,97908.78
2022-11-16T16:54:14.926Z,97901.56
2022-11-16T16:56:44.148Z,97894.59
2022-11-16T16:59:15.568Z,97894.91
2022-11-16T17:01:48.440Z,97896.38
2022-11-16T17:04:16.713Z,97891.25
2022-11-16T17:06:46.564Z,97895.66
2022-11-16T17:09:14.263Z,97897.13
2022-11-16T17:11:43.625Z,97898.28
2022-11-16T17:14:12.040Z,97893.25
2022-11-16T17:16:39.238Z,97887.53
2022-11-16T17:19:08.562Z,97884.72
2022-11-16T17:21:36.022Z,97889.13
2022-11-16T17:24:06.699Z,97888.91
2022-11-16T17:26:33.849Z,97884.81
2022-11-16T17:31:47.196Z,97883.34
2022-11-16T17:34:14.763Z,97879.69
2022-11-16T17:36:47.065Z,97886.59
2022-11-16T17:39:17.037Z,97891.88
2022-11-16T17:41:46.135Z,97890.19
2022-11-16T17:44:18.612Z,97880.09
2022-11-16T17:46:48.973Z,97882.50
2022-11-16T17:49:18.179Z,97890.81
2022-11-16T17:51:45.275Z,97883.34
2022-11-16T17:54:12.917Z,97884.28
2022-11-16T17:56:40.257Z,97887.03
2022-11-16T17:59:11.549Z,97879.12
2022-11-16T18:01:39.479Z,97880.59
2022-11-16T18:04:07.144Z,97871.66
2022-11-16T18:06:37.856Z,97872.91
2022-11-16T18:09:09.211Z,97869.56
2022-11-16T18:11:39.492Z,97865.88
2022-11-16T18:14:07.069Z,97868.50
2022-11-16T18:16:36.467Z,97864.75
2022-11-16T18:19:06.504Z,97862.53
2022-11-16T18:21:41.526Z,97866.28
2022-11-16T18:24:10.708Z,97871.03
2022-11-16T18:26:39.529Z,97871.66
2022-11-16T18:29:12.757Z,97867.47
2022-11-16T18:31:40.419Z,97869.56
2022-11-16T18:34:08.167Z,97877.16
2022-11-16T18:36:37.195Z,97875.47
2022-11-16T18:39:04.802Z,97871.12
2022-11-16T18:41:34.152Z,97877.16
2022-11-16T18:44:02.726Z,97876.72
2022-11-16T18:46:32.270Z,97874.09
2022-11-16T18:49:00.914Z,97875.22
2022-11-16T18:51:30.567Z,97870.62
2022-11-16T18:54:00.131Z,97868.72
2022-11-16T18:56:27.318Z,97870.62
2022-11-16T18:59:01.979Z,97862.81
2022-11-16T19:01:30.963Z,97858.50
2022-11-16T19:03:58.911Z,97860.53
2022-11-16T19:06:26.219Z,97859.25
2022-11-16T19:09:00.302Z,97855.06
2022-11-16T19:11:30.262Z,97856.59
2022-11-16T19:14:07.834Z,97860.94
2022-11-16T19:16:35.830Z,97848.84
2022-11-16T19:19:07.670Z,97846.75
2022-11-16T19:21:37.669Z,97848.00
2022-11-16T19:24:07.020Z,97847.88
2022-11-16T19:26:34.245Z,97843.37
2022-11-16T19:29:04.179Z,97843.78
2022-11-16T19:31:35.252Z,97846.84
2022-11-16T19:34:06.188Z,97847.25
2022-11-16T19:36:38.482Z,97856.63
2022-11-16T19:39:05.947Z,97849.03
2022-11-16T19:41:34.130Z,97849.66
2022-11-16T19:44:04.058Z,97850.84
2022-11-16T19:46:38.027Z,97848.12
2022-11-16T19:49:07.326Z,97845.16
2022-11-16T19:51:34.654Z,97841.81
2022-11-16T19:54:03.082Z,97844.09
2022-11-16T19:56:31.697Z,97841.12
2022-11-16T19:59:01.468Z,97831.06
2022-11-16T20:01:29.787Z,97837.91
2022-11-16T20:04:00.556Z,97853.34
2022-11-16T20:06:34.429Z,97848.94
2022-11-16T20:09:10.100Z,97849.03
2022-11-16T20:11:39.985Z,97851.34
2022-11-16T20:14:14.857Z,97850.38
2022-11-16T20:16:49.049Z,97852.59
2022-11-16T20:19:18.981Z,97847.88
2022-11-16T20:21:47.477Z,97854.94
2022-11-16T20:24:17.571Z,97846.16
2022-11-16T20:26:48.123Z,97847.25
2022-11-16T20:29:21.658Z,97850.53
2022-11-16T20:31:49.247Z,97854.28
2022-11-16T20:34:18.467Z,97854.50
2022-11-16T20:36:49.667Z,97861.34
2022-11-16T20:39:20.461Z,97853.88
2022-11-16T20:41:50.599Z,97856.72
2022-11-16T20:44:21.419Z,97856.44
2022-11-16T20:46:49.107Z,97858.84
2022-11-16T20:49:19.690Z,97847.78
2022-11-16T20:51:49.617Z,97842.41
2022-11-16T20:54:19.632Z,97843.06
2022-11-16T20:56:49.544Z,97836.72
2022-11-16T20:59:19.888Z,97838.63
2022-11-16T21:01:53.165Z,97851.59
2022-11-16T21:04:20.739Z,97844.31
2022-11-16T21:06:50.285Z,97840.53
2022-11-16T21:09:22.717Z,97836.44
2022-11-16T21:12:09.058Z,97832.34
2022-11-16T21:14:36.578Z,97829.81
2022-11-16T21:17:04.976Z,97826.00
2022-11-16T21:19:33.829Z,97816.16
2022-11-16T21:22:03.599Z,97819.28
2022-11-16T21:24:32.419Z,97816.97
2022-11-16T21:26:59.881Z,97821.06
2022-11-16T21:29:28.475Z,97819.16
2022-11-16T21:31:57.035Z,97807.88
2022-11-16T21:34:30.209Z,97809.41
2022-11-16T21:37:03.735Z,97805.59
2022-11-16T21:39:34.262Z,97802.97
2022-11-16T21:42:02.450Z,97801.31
2022-11-16T21:44:42.349Z,97792.88
2022-11-16T21:47:11.226Z,97793.91
2022-11-16T21:50:00.830Z,97787.19
2022-11-16T21:52:28.956Z,97790.25
2022-11-16T21:55:00.240Z,97785.94
2022-11-16T21:57:28.863Z,97783.81
2022-11-16T22:00:01.153Z,97792.78
2022-11-16T22:02:40.313Z,97798.53
2022-11-16T22:05:31.741Z,97796.97
2022-11-16T22:08:11.346Z,97788.88
2022-11-16T22:10:40.468Z,97781.75
2022-11-16T22:13:10.828Z,97771.97
2022-11-16T22:15:38.451Z,97775.44
2022-11-16T22:18:07.775Z,97782.59
2022-11-16T22:20:35.565Z,97799.09
2022-11-16T22:23:02.811Z,97815.72
2022-11-16T22:25:32.124Z,97811.50
2022-11-16T22:28:19.771Z,97820.25
2022-11-16T22:30:51.634Z,97817.50
2022-11-16T22:33:23.628Z,97804.34
2022-11-16T22:35:51.757Z,97803.31
2022-11-16T22:38:19.191Z,97801.84
2022-11-16T22:40:53.825Z,97809.31
2022-11-16T22:43:23.864Z,97802.38
2022-11-16T22:45:53.414Z,97799.09
2022-11-16T22:48:20.846Z,97805.41
2022-11-16T22:50:49.247Z,97805.09
2022-11-16T22:53:20.823Z,97806.97
2022-11-16T22:55:50.976Z,97812.13
2022-11-16T22:58:18.697Z,97825.06
2022-11-16T23:00:47.257Z,97815.38
2022-11-16T23:03:14.644Z,97815.81
2022-11-16T23:05:41.879Z,97806.97
2022-11-16T23:08:10.594Z,97812.03
2022-11-16T23:11:00.234Z,97806.97
2022-11-16T23:13:48.126Z,97803.28
2022-11-16T23:16:16.126Z,97800.03
2022-11-16T23:18:45.353Z,97799.75
2022-11-16T23:21:33.702Z,97804.88
2022-11-16T23:24:19.517Z,97805.50
2022-11-16T23:27:06.224Z,97802.88
2022-11-16T23:29:34.939Z,97805.50
2022-11-16T23:32:02.068Z,97803.72
2022-11-16T23:34:30.690Z,97798.37
2022-11-16T23:37:06.537Z,97807.50
2022-11-16T23:39:34.783Z,97805.41
2022-11-16T23:42:27.713Z,97805.50
2022-11-16T23:44:54.880Z,97812.34
2022-11-16T23:47:24.406Z,97804.56
2022-11-16T23:49:54.132Z,97806.66
2022-11-16T23:52:21.478Z,97791.84
2022-11-16T23:54:49.138Z,97801.94
2022-11-16T23:57:16.899Z,97790.47
2022-11-16T23:59:46.943Z,97795.19
